Terminal Aerodrome Forecast
Issued by NWS Shreveport, LA

Home | Current Version | Previous Version | Text Only | Print | Product List | Glossary On
Versions: 1 2 3 4 5 6 7 8 9 10 11 12 13 14 15 16 17
574
FTUS44 KSHV 261140
TAFMLU
TAF
KMLU 261140Z 2612/2712 08003KT P6SM SKC
     FM261500 09006KT P6SM FEW020
     FM261700 08006KT P6SM SCT040
     FM270300 10003KT P6SM FEW060 SCT120 BKN250
     FM270600 VRB03KT P6SM SCT100 BKN150 BKN250=

USA.gov is the U.S. government's official web portal to all federal, state and local government web resources and services.